Terminal Aerodrome Forecast
Issued by NWS Wilmington, OH

Current Version | Previous Version | Graphics & Text | Print | Product List | Glossary On
Versions: 1 2 3 4 5 6 7 8 9 10 11 12 13 14 15 16 17 18 19 20 21 22 23 24
000
FTUS41 KILN 271747
TAFILN
TAF
KILN 271747Z 2718/2818 19008KT P6SM SCT040 SCT250
     FM272000 21007KT P6SM VCTS SCT040CB BKN250
     FM280000 VRB03KT P6SM SCT250
     FM280900 33003KT 5SM BR FEW035 SCT150
     FM281300 02003KT P6SM FEW035 SCT150
     FM281500 02006KT P6SM SCT040 SCT150=

USA.gov is the U.S. government's official web portal to all federal, state and local government web resources and services.